sensor_id;sensor_type;location;lat;lon;timestamp;P1;durP1;ratioP1;P2;durP2;ratioP2
55989;SDS011;41875;55.806;38.082;2022-11-30T00:01:17;28.30;;;10.45;;
55989;SDS011;41875;55.806;38.082;2022-11-30T00:03:47;29.77;;;11.10;;
55989;SDS011;41875;55.806;38.082;2022-11-30T00:06:20;33.53;;;11.57;;
55989;SDS011;41875;55.806;38.082;2022-11-30T00:08:51;27.35;;;10.88;;
55989;SDS011;41875;55.806;38.082;2022-11-30T00:11:20;28.65;;;7.97;;
55989;SDS011;41875;55.806;38.082;2022-11-30T00:13:51;28.08;;;11.35;;
55989;SDS011;41875;55.806;38.082;2022-11-30T00:16:20;22.55;;;9.15;;
55989;SDS011;41875;55.806;38.082;2022-11-30T00:18:49;29.33;;;10.30;;
55989;SDS011;41875;55.806;38.082;2022-11-30T00:21:18;18.33;;;7.65;;
55989;SDS011;41875;55.806;38.082;2022-11-30T00:23:47;29.10;;;10.57;;
55989;SDS011;41875;55.806;38.082;2022-11-30T00:26:16;26.73;;;10.48;;
55989;SDS011;41875;55.806;38.082;2022-11-30T00:28:48;32.40;;;11.48;;
55989;SDS011;41875;55.806;38.082;2022-11-30T00:31:18;24.17;;;9.32;;
55989;SDS011;41875;55.806;38.082;2022-11-30T00:33:47;26.63;;;10.27;;
55989;SDS011;41875;55.806;38.082;2022-11-30T00:36:16;25.17;;;9.75;;
55989;SDS011;41875;55.806;38.082;2022-11-30T00:38:46;33.40;;;11.70;;
55989;SDS011;41875;55.806;38.082;2022-11-30T00:41:14;27.17;;;10.68;;
55989;SDS011;41875;55.806;38.082;2022-11-30T00:43:43;30.38;;;8.15;;
55989;SDS011;41875;55.806;38.082;2022-11-30T00:46:11;34.85;;;12.77;;
55989;SDS011;41875;55.806;38.082;2022-11-30T00:48:42;30.60;;;12.18;;
55989;SDS011;41875;55.806;38.082;2022-11-30T00:51:10;41.20;;;14.02;;
55989;SDS011;41875;55.806;38.082;2022-11-30T00:53:39;31.13;;;11.63;;
55989;SDS011;41875;55.806;38.082;2022-11-30T00:56:09;33.13;;;12.98;;
55989;SDS011;41875;55.806;38.082;2022-11-30T00:58:37;30.83;;;10.02;;
55989;SDS011;41875;55.806;38.082;2022-11-30T01:01:06;29.92;;;12.15;;
55989;SDS011;41875;55.806;38.082;2022-11-30T01:03:35;33.30;;;12.40;;
55989;SDS011;41875;55.806;38.082;2022-11-30T01:06:06;24.30;;;9.05;;
55989;SDS011;41875;55.806;38.082;2022-11-30T01:08:36;31.08;;;11.57;;
55989;SDS011;41875;55.806;38.082;2022-11-30T01:11:08;25.60;;;9.27;;
55989;SDS011;41875;55.806;38.082;2022-11-30T01:13:39;33.85;;;12.23;;
55989;SDS011;41875;55.806;38.082;2022-11-30T01:16:09;22.92;;;8.80;;
55989;SDS011;41875;55.806;38.082;2022-11-30T01:18:41;28.27;;;9.82;;
55989;SDS011;41875;55.806;38.082;2022-11-30T01:21:12;30.15;;;10.95;;
55989;SDS011;41875;55.806;38.082;2022-11-30T01:23:42;33.47;;;11.27;;
55989;SDS011;41875;55.806;38.082;2022-11-30T01:26:10;27.58;;;10.27;;
55989;SDS011;41875;55.806;38.082;2022-11-30T01:28:39;22.25;;;8.57;;
55989;SDS011;41875;55.806;38.082;2022-11-30T01:31:10;32.53;;;11.23;;
55989;SDS011;41875;55.806;38.082;2022-11-30T01:33:40;29.27;;;10.50;;
55989;SDS011;41875;55.806;38.082;2022-11-30T01:36:10;28.27;;;11.85;;
55989;SDS011;41875;55.806;38.082;2022-11-30T01:38:42;33.30;;;13.05;;
55989;SDS011;41875;55.806;38.082;2022-11-30T01:41:13;20.52;;;10.07;;
55989;SDS011;41875;55.806;38.082;2022-11-30T01:43:45;43.85;;;13.20;;
55989;SDS011;41875;55.806;38.082;2022-11-30T01:49:03;32.72;;;11.82;;
55989;SDS011;41875;55.806;38.082;2022-11-30T01:51:41;34.00;;;11.93;;
55989;SDS011;41875;55.806;38.082;2022-11-30T01:54:14;29.23;;;11.00;;
55989;SDS011;41875;55.806;38.082;2022-11-30T01:56:46;30.23;;;13.25;;
55989;SDS011;41875;55.806;38.082;2022-11-30T01:59:19;31.23;;;13.02;;
55989;SDS011;41875;55.806;38.082;2022-11-30T02:01:49;26.40;;;10.40;;
55989;SDS011;41875;55.806;38.082;2022-11-30T02:04:20;35.22;;;11.98;;
55989;SDS011;41875;55.806;38.082;2022-11-30T02:06:53;26.70;;;11.38;;
55989;SDS011;41875;55.806;38.082;2022-11-30T02:09:24;32.80;;;12.23;;
55989;SDS011;41875;55.806;38.082;2022-11-30T02:11:54;28.05;;;10.65;;
55989;SDS011;41875;55.806;38.082;2022-11-30T02:14:26;27.42;;;9.85;;
55989;SDS011;41875;55.806;38.082;2022-11-30T02:17:02;27.23;;;11.07;;
55989;SDS011;41875;55.806;38.082;2022-11-30T02:19:53;33.78;;;10.90;;
55989;SDS011;41875;55.806;38.082;2022-11-30T02:22:40;32.33;;;11.57;;
55989;SDS011;41875;55.806;38.082;2022-11-30T02:25:17;30.88;;;12.48;;
55989;SDS011;41875;55.806;38.082;2022-11-30T02:28:07;35.70;;;12.52;;
55989;SDS011;41875;55.806;38.082;2022-11-30T02:30:50;33.17;;;11.65;;
55989;SDS011;41875;55.806;38.082;2022-11-30T02:33:22;28.75;;;10.95;;
55989;SDS011;41875;55.806;38.082;2022-11-30T02:35:54;31.90;;;11.70;;
55989;SDS011;41875;55.806;38.082;2022-11-30T02:38:25;28.50;;;10.65;;
55989;SDS011;41875;55.806;38.082;2022-11-30T02:40:55;25.85;;;10.02;;
55989;SDS011;41875;55.806;38.082;2022-11-30T02:43:23;25.45;;;9.88;;
55989;SDS011;41875;55.806;38.082;2022-11-30T02:45:57;25.23;;;10.63;;
55989;SDS011;41875;55.806;38.082;2022-11-30T02:48:35;28.58;;;10.68;;
55989;SDS011;41875;55.806;38.082;2022-11-30T02:51:09;29.52;;;9.98;;
55989;SDS011;41875;55.806;38.082;2022-11-30T02:53:42;26.65;;;11.77;;
55989;SDS011;41875;55.806;38.082;2022-11-30T02:56:11;29.13;;;11.05;;
55989;SDS011;41875;55.806;38.082;2022-11-30T02:58:40;28.77;;;9.77;;
55989;SDS011;41875;55.806;38.082;2022-11-30T03:01:10;26.15;;;10.63;;
55989;SDS011;41875;55.806;38.082;2022-11-30T03:03:39;24.60;;;10.20;;
55989;SDS011;41875;55.806;38.082;2022-11-30T03:06:07;34.42;;;10.70;;
55989;SDS011;41875;55.806;38.082;2022-11-30T03:08:35;23.02;;;9.75;;
55989;SDS011;41875;55.806;38.082;2022-11-30T03:11:04;19.00;;;9.70;;
55989;SDS011;41875;55.806;38.082;2022-11-30T03:13:33;30.65;;;10.45;;
55989;SDS011;41875;55.806;38.082;2022-11-30T03:16:05;25.20;;;9.80;;
55989;SDS011;41875;55.806;38.082;2022-11-30T03:18:36;25.55;;;10.70;;
55989;SDS011;41875;55.806;38.082;2022-11-30T03:21:05;28.48;;;9.27;;
55989;SDS011;41875;55.806;38.082;2022-11-30T03:23:34;34.83;;;10.52;;
55989;SDS011;41875;55.806;38.082;2022-11-30T03:26:03;30.17;;;11.13;;
55989;SDS011;41875;55.806;38.082;2022-11-30T03:28:33;28.15;;;10.30;;
55989;SDS011;41875;55.806;38.082;2022-11-30T03:31:03;22.83;;;9.73;;
55989;SDS011;41875;55.806;38.082;2022-11-30T03:33:32;22.60;;;8.95;;
55989;SDS011;41875;55.806;38.082;2022-11-30T03:36:03;19.63;;;8.00;;
55989;SDS011;41875;55.806;38.082;2022-11-30T03:38:33;30.02;;;10.20;;
55989;SDS011;41875;55.806;38.082;2022-11-30T03:41:03;21.88;;;9.45;;
55989;SDS011;41875;55.806;38.082;2022-11-30T03:43:32;18.70;;;7.97;;
55989;SDS011;41875;55.806;38.082;2022-11-30T03:46:01;20.23;;;8.45;;
55989;SDS011;41875;55.806;38.082;2022-11-30T03:48:30;26.58;;;10.73;;
55989;SDS011;41875;55.806;38.082;2022-11-30T03:50:58;30.13;;;9.75;;
55989;SDS011;41875;55.806;38.082;2022-11-30T03:53:28;25.35;;;10.98;;
55989;SDS011;41875;55.806;38.082;2022-11-30T03:55:58;31.90;;;11.23;;
55989;SDS011;41875;55.806;38.082;2022-11-30T03:58:28;32.85;;;12.15;;
55989;SDS011;41875;55.806;38.082;2022-11-30T04:00:58;30.65;;;9.20;;
55989;SDS011;41875;55.806;38.082;2022-11-30T04:03:28;22.38;;;9.85;;
55989;SDS011;41875;55.806;38.082;2022-11-30T04:05:56;26.00;;;10.50;;
55989;SDS011;41875;55.806;38.082;2022-11-30T04:08:25;33.20;;;13.10;;
55989;SDS011;41875;55.806;38.082;2022-11-30T04:10:56;23.45;;;9.65;;
55989;SDS011;41875;55.806;38.082;2022-11-30T04:13:27;26.35;;;9.60;;
55989;SDS011;41875;55.806;38.082;2022-11-30T04:15:58;24.30;;;8.13;;
55989;SDS011;41875;55.806;38.082;2022-11-30T04:18:28;18.80;;;8.82;;
55989;SDS011;41875;55.806;38.082;2022-11-30T04:20:57;21.25;;;9.38;;
55989;SDS011;41875;55.806;38.082;2022-11-30T04:23:29;17.80;;;7.03;;
55989;SDS011;41875;55.806;38.082;2022-11-30T04:26:01;22.75;;;8.18;;
55989;SDS011;41875;55.806;38.082;2022-11-30T04:28:30;26.23;;;8.57;;
55989;SDS011;41875;55.806;38.082;2022-11-30T04:30:59;15.63;;;6.43;;
55989;SDS011;41875;55.806;38.082;2022-11-30T04:33:28;26.00;;;9.63;;
55989;SDS011;41875;55.806;38.082;2022-11-30T04:35:58;19.70;;;8.15;;
55989;SDS011;41875;55.806;38.082;2022-11-30T04:38:30;27.40;;;10.45;;
55989;SDS011;41875;55.806;38.082;2022-11-30T04:40:59;23.20;;;7.85;;
55989;SDS011;41875;55.806;38.082;2022-11-30T04:43:32;24.15;;;9.82;;
55989;SDS011;41875;55.806;38.082;2022-11-30T04:46:01;27.02;;;9.77;;
55989;SDS011;41875;55.806;38.082;2022-11-30T04:48:30;25.10;;;9.45;;
55989;SDS011;41875;55.806;38.082;2022-11-30T04:50:59;18.80;;;7.13;;
55989;SDS011;41875;55.806;38.082;2022-11-30T04:53:29;22.38;;;8.73;;
55989;SDS011;41875;55.806;38.082;2022-11-30T04:55:58;28.88;;;10.38;;
55989;SDS011;41875;55.806;38.082;2022-11-30T04:58:31;27.77;;;9.55;;
55989;SDS011;41875;55.806;38.082;2022-11-30T05:01:00;30.77;;;11.57;;
55989;SDS011;41875;55.806;38.082;2022-11-30T05:03:28;32.42;;;11.35;;
55989;SDS011;41875;55.806;38.082;2022-11-30T05:05:57;23.42;;;10.38;;
55989;SDS011;41875;55.806;38.082;2022-11-30T05:08:26;36.20;;;11.60;;
55989;SDS011;41875;55.806;38.082;2022-11-30T05:10:55;19.38;;;9.18;;
55989;SDS011;41875;55.806;38.082;2022-11-30T05:13:24;25.70;;;10.13;;
55989;SDS011;41875;55.806;38.082;2022-11-30T05:15:53;22.92;;;9.68;;
55989;SDS011;41875;55.806;38.082;2022-11-30T05:18:22;41.08;;;11.25;;
55989;SDS011;41875;55.806;38.082;2022-11-30T05:20:52;40.30;;;12.88;;
55989;SDS011;41875;55.806;38.082;2022-11-30T05:23:20;27.75;;;10.43;;
55989;SDS011;41875;55.806;38.082;2022-11-30T05:25:49;27.60;;;10.57;;
55989;SDS011;41875;55.806;38.082;2022-11-30T05:28:19;30.27;;;10.85;;
55989;SDS011;41875;55.806;38.082;2022-11-30T05:30:48;27.45;;;9.63;;
55989;SDS011;41875;55.806;38.082;2022-11-30T05:33:18;24.85;;;10.23;;
55989;SDS011;41875;55.806;38.082;2022-11-30T05:35:47;27.80;;;10.55;;
55989;SDS011;41875;55.806;38.082;2022-11-30T05:38:15;23.08;;;9.02;;
55989;SDS011;41875;55.806;38.082;2022-11-30T05:40:43;20.35;;;8.25;;
55989;SDS011;41875;55.806;38.082;2022-11-30T05:43:12;24.25;;;9.23;;
55989;SDS011;41875;55.806;38.082;2022-11-30T05:45:42;19.25;;;9.02;;
55989;SDS011;41875;55.806;38.082;2022-11-30T05:48:10;35.90;;;11.73;;
55989;SDS011;41875;55.806;38.082;2022-11-30T05:50:39;21.15;;;7.78;;
55989;SDS011;41875;55.806;38.082;2022-11-30T05:53:08;28.48;;;9.88;;
55989;SDS011;41875;55.806;38.082;2022-11-30T05:55:36;25.00;;;10.27;;
55989;SDS011;41875;55.806;38.082;2022-11-30T05:58:04;28.00;;;10.38;;
55989;SDS011;41875;55.806;38.082;2022-11-30T06:00:33;12.90;;;6.93;;
55989;SDS011;41875;55.806;38.082;2022-11-30T06:03:03;25.27;;;10.35;;
55989;SDS011;41875;55.806;38.082;2022-11-30T06:05:32;33.03;;;9.65;;
55989;SDS011;41875;55.806;38.082;2022-11-30T06:08:02;25.98;;;10.00;;
55989;SDS011;41875;55.806;38.082;2022-11-30T06:10:31;24.15;;;9.85;;
55989;SDS011;41875;55.806;38.082;2022-11-30T06:13:04;20.30;;;8.30;;
55989;SDS011;41875;55.806;38.082;2022-11-30T06:15:35;24.08;;;10.07;;
55989;SDS011;41875;55.806;38.082;2022-11-30T06:18:05;22.52;;;11.02;;
55989;SDS011;41875;55.806;38.082;2022-11-30T06:20:35;30.45;;;9.57;;
55989;SDS011;41875;55.806;38.082;2022-11-30T06:23:04;33.17;;;10.93;;
55989;SDS011;41875;55.806;38.082;2022-11-30T06:25:32;33.67;;;11.38;;
55989;SDS011;41875;55.806;38.082;2022-11-30T06:28:01;24.73;;;9.68;;
55989;SDS011;41875;55.806;38.082;2022-11-30T06:30:29;22.13;;;8.43;;
55989;SDS011;41875;55.806;38.082;2022-11-30T06:32:58;22.13;;;9.80;;
55989;SDS011;41875;55.806;38.082;2022-11-30T06:35:28;39.75;;;11.05;;
55989;SDS011;41875;55.806;38.082;2022-11-30T06:37:56;28.20;;;12.10;;
55989;SDS011;41875;55.806;38.082;2022-11-30T06:40:26;27.98;;;11.10;;
55989;SDS011;41875;55.806;38.082;2022-11-30T06:42:55;32.50;;;10.77;;
55989;SDS011;41875;55.806;38.082;2022-11-30T06:45:24;29.67;;;12.57;;
55989;SDS011;41875;55.806;38.082;2022-11-30T06:47:54;29.55;;;11.27;;
55989;SDS011;41875;55.806;38.082;2022-11-30T06:50:27;24.95;;;10.80;;
55989;SDS011;41875;55.806;38.082;2022-11-30T06:52:59;29.17;;;11.57;;
55989;SDS011;41875;55.806;38.082;2022-11-30T06:55:28;31.08;;;11.18;;
55989;SDS011;41875;55.806;38.082;2022-11-30T06:58:03;24.92;;;11.20;;
55989;SDS011;41875;55.806;38.082;2022-11-30T07:00:33;33.35;;;12.15;;
55989;SDS011;41875;55.806;38.082;2022-11-30T07:03:02;31.63;;;11.70;;
55989;SDS011;41875;55.806;38.082;2022-11-30T07:05:33;31.25;;;12.65;;
55989;SDS011;41875;55.806;38.082;2022-11-30T07:08:07;27.45;;;11.65;;
55989;SDS011;41875;55.806;38.082;2022-11-30T07:10:38;27.83;;;11.40;;
55989;SDS011;41875;55.806;38.082;2022-11-30T07:13:11;33.65;;;11.52;;
55989;SDS011;41875;55.806;38.082;2022-11-30T07:15:41;28.55;;;12.20;;
55989;SDS011;41875;55.806;38.082;2022-11-30T07:18:11;32.30;;;12.88;;
55989;SDS011;41875;55.806;38.082;2022-11-30T07:20:41;36.67;;;12.77;;
55989;SDS011;41875;55.806;38.082;2022-11-30T07:23:10;31.58;;;11.52;;
55989;SDS011;41875;55.806;38.082;2022-11-30T07:25:58;37.47;;;13.05;;
55989;SDS011;41875;55.806;38.082;2022-11-30T07:28:35;33.23;;;12.10;;
55989;SDS011;41875;55.806;38.082;2022-11-30T07:31:12;30.38;;;12.70;;
55989;SDS011;41875;55.806;38.082;2022-11-30T07:33:42;33.30;;;12.70;;
55989;SDS011;41875;55.806;38.082;2022-11-30T07:36:12;34.72;;;13.98;;
55989;SDS011;41875;55.806;38.082;2022-11-30T07:38:42;33.33;;;13.23;;
55989;SDS011;41875;55.806;38.082;2022-11-30T07:41:11;37.90;;;13.15;;
55989;SDS011;41875;55.806;38.082;2022-11-30T07:43:40;36.72;;;13.85;;
55989;SDS011;41875;55.806;38.082;2022-11-30T07:46:09;31.05;;;14.30;;
55989;SDS011;41875;55.806;38.082;2022-11-30T07:48:39;31.35;;;13.07;;
55989;SDS011;41875;55.806;38.082;2022-11-30T07:51:09;32.95;;;12.77;;
55989;SDS011;41875;55.806;38.082;2022-11-30T07:53:41;37.67;;;13.95;;
55989;SDS011;41875;55.806;38.082;2022-11-30T07:56:11;33.90;;;13.95;;
55989;SDS011;41875;55.806;38.082;2022-11-30T07:58:41;33.03;;;13.27;;
55989;SDS011;41875;55.806;38.082;2022-11-30T08:01:10;32.05;;;12.60;;
55989;SDS011;41875;55.806;38.082;2022-11-30T08:03:40;36.95;;;13.30;;
55989;SDS011;41875;55.806;38.082;2022-11-30T08:06:09;32.60;;;11.85;;
55989;SDS011;41875;55.806;38.082;2022-11-30T08:08:40;35.08;;;12.85;;
55989;SDS011;41875;55.806;38.082;2022-11-30T08:11:11;38.08;;;13.55;;
55989;SDS011;41875;55.806;38.082;2022-11-30T08:13:40;32.05;;;13.52;;
55989;SDS011;41875;55.806;38.082;2022-11-30T08:16:10;37.45;;;13.98;;
55989;SDS011;41875;55.806;38.082;2022-11-30T08:18:40;36.83;;;13.93;;
55989;SDS011;41875;55.806;38.082;2022-11-30T08:21:10;33.08;;;13.57;;
55989;SDS011;41875;55.806;38.082;2022-11-30T08:23:41;33.45;;;14.10;;
55989;SDS011;41875;55.806;38.082;2022-11-30T08:26:12;34.47;;;13.23;;
55989;SDS011;41875;55.806;38.082;2022-11-30T08:28:42;37.25;;;13.20;;
55989;SDS011;41875;55.806;38.082;2022-11-30T08:31:14;34.55;;;14.48;;
55989;SDS011;41875;55.806;38.082;2022-11-30T08:33:44;36.15;;;13.68;;
55989;SDS011;41875;55.806;38.082;2022-11-30T08:36:13;35.13;;;13.23;;
55989;SDS011;41875;55.806;38.082;2022-11-30T08:38:44;34.38;;;13.68;;
55989;SDS011;41875;55.806;38.082;2022-11-30T08:41:14;35.40;;;14.43;;
55989;SDS011;41875;55.806;38.082;2022-11-30T08:43:45;35.05;;;14.73;;
55989;SDS011;41875;55.806;38.082;2022-11-30T08:46:15;30.30;;;14.10;;
55989;SDS011;41875;55.806;38.082;2022-11-30T08:49:05;35.42;;;13.82;;
55989;SDS011;41875;55.806;38.082;2022-11-30T08:51:51;37.95;;;14.02;;
55989;SDS011;41875;55.806;38.082;2022-11-30T08:54:45;40.35;;;15.18;;
55989;SDS011;41875;55.806;38.082;2022-11-30T08:57:15;37.13;;;15.65;;
55989;SDS011;41875;55.806;38.082;2022-11-30T08:59:45;36.92;;;15.55;;
55989;SDS011;41875;55.806;38.082;2022-11-30T09:02:15;38.75;;;16.08;;
55989;SDS011;41875;55.806;38.082;2022-11-30T09:04:45;39.45;;;15.27;;
55989;SDS011;41875;55.806;38.082;2022-11-30T09:07:17;40.13;;;16.00;;
55989;SDS011;41875;55.806;38.082;2022-11-30T09:09:48;41.72;;;16.60;;
55989;SDS011;41875;55.806;38.082;2022-11-30T09:12:16;39.28;;;16.17;;
55989;SDS011;41875;55.806;38.082;2022-11-30T09:14:46;39.30;;;15.38;;
55989;SDS011;41875;55.806;38.082;2022-11-30T09:17:23;33.92;;;14.60;;
55989;SDS011;41875;55.806;38.082;2022-11-30T09:19:52;41.05;;;15.27;;
55989;SDS011;41875;55.806;38.082;2022-11-30T09:22:21;32.83;;;14.23;;
55989;SDS011;41875;55.806;38.082;2022-11-30T09:24:51;42.60;;;16.98;;
55989;SDS011;41875;55.806;38.082;2022-11-30T09:27:20;45.60;;;17.00;;
55989;SDS011;41875;55.806;38.082;2022-11-30T09:29:49;40.13;;;16.25;;
55989;SDS011;41875;55.806;38.082;2022-11-30T09:32:17;39.35;;;15.05;;
55989;SDS011;41875;55.806;38.082;2022-11-30T09:34:46;38.70;;;16.58;;
55989;SDS011;41875;55.806;38.082;2022-11-30T09:37:16;42.10;;;16.73;;
55989;SDS011;41875;55.806;38.082;2022-11-30T09:39:45;38.63;;;15.98;;
55989;SDS011;41875;55.806;38.082;2022-11-30T09:45:12;40.63;;;15.82;;
55989;SDS011;41875;55.806;38.082;2022-11-30T09:47:57;40.75;;;15.82;;
55989;SDS011;41875;55.806;38.082;2022-11-30T09:50:47;38.10;;;16.58;;
55989;SDS011;41875;55.806;38.082;2022-11-30T09:53:24;39.72;;;17.08;;
55989;SDS011;41875;55.806;38.082;2022-11-30T09:56:05;45.17;;;19.35;;
55989;SDS011;41875;55.806;38.082;2022-11-30T09:58:49;41.92;;;17.10;;
55989;SDS011;41875;55.806;38.082;2022-11-30T10:01:22;44.97;;;19.80;;
55989;SDS011;41875;55.806;38.082;2022-11-30T10:03:56;48.90;;;18.42;;
55989;SDS011;41875;55.806;38.082;2022-11-30T10:06:26;52.95;;;19.27;;
55989;SDS011;41875;55.806;38.082;2022-11-30T10:09:12;47.58;;;18.73;;
55989;SDS011;41875;55.806;38.082;2022-11-30T10:11:55;49.55;;;20.50;;
55989;SDS011;41875;55.806;38.082;2022-11-30T10:14:39;54.92;;;19.90;;
55989;SDS011;41875;55.806;38.082;2022-11-30T10:17:43;51.65;;;19.98;;
55989;SDS011;41875;55.806;38.082;2022-11-30T10:23:17;45.75;;;18.23;;
55989;SDS011;41875;55.806;38.082;2022-11-30T10:25:57;44.72;;;18.25;;
55989;SDS011;41875;55.806;38.082;2022-11-30T10:28:34;44.42;;;17.85;;
55989;SDS011;41875;55.806;38.082;2022-11-30T10:31:15;42.28;;;17.55;;
55989;SDS011;41875;55.806;38.082;2022-11-30T10:33:46;44.10;;;17.17;;
55989;SDS011;41875;55.806;38.082;2022-11-30T10:36:18;41.97;;;16.23;;
55989;SDS011;41875;55.806;38.082;2022-11-30T10:38:54;42.77;;;17.40;;
55989;SDS011;41875;55.806;38.082;2022-11-30T10:41:27;46.72;;;17.48;;
55989;SDS011;41875;55.806;38.082;2022-11-30T10:44:02;44.35;;;19.83;;
55989;SDS011;41875;55.806;38.082;2022-11-30T10:46:36;44.65;;;18.42;;
55989;SDS011;41875;55.806;38.082;2022-11-30T10:49:09;44.30;;;17.42;;
55989;SDS011;41875;55.806;38.082;2022-11-30T10:51:40;44.85;;;17.42;;
55989;SDS011;41875;55.806;38.082;2022-11-30T10:54:12;39.25;;;16.83;;
55989;SDS011;41875;55.806;38.082;2022-11-30T10:56:42;42.50;;;16.42;;
55989;SDS011;41875;55.806;38.082;2022-11-30T10:59:15;41.88;;;17.02;;
55989;SDS011;41875;55.806;38.082;2022-11-30T11:01:50;39.72;;;16.67;;
55989;SDS011;41875;55.806;38.082;2022-11-30T11:04:20;44.63;;;18.63;;
55989;SDS011;41875;55.806;38.082;2022-11-30T11:06:50;41.80;;;18.35;;
55989;SDS011;41875;55.806;38.082;2022-11-30T11:09:21;35.55;;;16.65;;
55989;SDS011;41875;55.806;38.082;2022-11-30T11:11:52;40.60;;;16.65;;
55989;SDS011;41875;55.806;38.082;2022-11-30T11:14:25;44.85;;;17.75;;
55989;SDS011;41875;55.806;38.082;2022-11-30T11:17:02;40.83;;;16.83;;
55989;SDS011;41875;55.806;38.082;2022-11-30T11:19:34;42.35;;;18.00;;
55989;SDS011;41875;55.806;38.082;2022-11-30T11:22:05;41.25;;;18.17;;
55989;SDS011;41875;55.806;38.082;2022-11-30T11:24:41;49.10;;;19.08;;
55989;SDS011;41875;55.806;38.082;2022-11-30T11:27:18;52.40;;;20.40;;
55989;SDS011;41875;55.806;38.082;2022-11-30T11:29:58;37.83;;;17.30;;
55989;SDS011;41875;55.806;38.082;2022-11-30T11:32:32;41.60;;;18.05;;
55989;SDS011;41875;55.806;38.082;2022-11-30T11:35:01;38.05;;;17.02;;
55989;SDS011;41875;55.806;38.082;2022-11-30T11:37:31;47.40;;;18.73;;
55989;SDS011;41875;55.806;38.082;2022-11-30T11:40:08;48.88;;;18.70;;
55989;SDS011;41875;55.806;38.082;2022-11-30T11:42:42;42.80;;;18.23;;
55989;SDS011;41875;55.806;38.082;2022-11-30T11:45:15;44.50;;;17.35;;
55989;SDS011;41875;55.806;38.082;2022-11-30T11:47:47;44.60;;;17.90;;
55989;SDS011;41875;55.806;38.082;2022-11-30T11:50:27;40.13;;;16.77;;
55989;SDS011;41875;55.806;38.082;2022-11-30T11:53:18;43.90;;;20.95;;
55989;SDS011;41875;55.806;38.082;2022-11-30T11:55:52;40.75;;;17.40;;
55989;SDS011;41875;55.806;38.082;2022-11-30T11:58:31;47.08;;;18.05;;
55989;SDS011;41875;55.806;38.082;2022-11-30T12:01:10;41.50;;;18.20;;
55989;SDS011;41875;55.806;38.082;2022-11-30T12:04:10;40.83;;;16.40;;
55989;SDS011;41875;55.806;38.082;2022-11-30T12:06:46;42.05;;;15.98;;
55989;SDS011;41875;55.806;38.082;2022-11-30T12:09:21;44.40;;;16.70;;
55989;SDS011;41875;55.806;38.082;2022-11-30T12:11:56;38.30;;;15.43;;
55989;SDS011;41875;55.806;38.082;2022-11-30T12:14:25;38.05;;;14.57;;
55989;SDS011;41875;55.806;38.082;2022-11-30T12:17:00;34.20;;;14.65;;
55989;SDS011;41875;55.806;38.082;2022-11-30T12:19:41;38.83;;;15.38;;
55989;SDS011;41875;55.806;38.082;2022-11-30T12:22:25;37.30;;;16.33;;
55989;SDS011;41875;55.806;38.082;2022-11-30T12:27:46;37.72;;;14.85;;
55989;SDS011;41875;55.806;38.082;2022-11-30T12:30:24;35.55;;;14.50;;
55989;SDS011;41875;55.806;38.082;2022-11-30T12:33:07;31.52;;;14.18;;
55989;SDS011;41875;55.806;38.082;2022-11-30T12:36:19;33.13;;;14.25;;
55989;SDS011;41875;55.806;38.082;2022-11-30T12:39:33;28.30;;;12.20;;
55989;SDS011;41875;55.806;38.082;2022-11-30T12:42:13;30.30;;;13.68;;
55989;SDS011;41875;55.806;38.082;2022-11-30T12:44:49;36.35;;;14.90;;
55989;SDS011;41875;55.806;38.082;2022-11-30T12:47:59;32.92;;;14.23;;
55989;SDS011;41875;55.806;38.082;2022-11-30T12:51:12;38.97;;;14.35;;
55989;SDS011;41875;55.806;38.082;2022-11-30T12:53:57;33.22;;;12.77;;
55989;SDS011;41875;55.806;38.082;2022-11-30T12:56:35;36.53;;;13.70;;
55989;SDS011;41875;55.806;38.082;2022-11-30T12:59:17;31.85;;;13.55;;
55989;SDS011;41875;55.806;38.082;2022-11-30T13:01:59;37.38;;;14.52;;
55989;SDS011;41875;55.806;38.082;2022-11-30T13:04:46;38.55;;;14.73;;
55989;SDS011;41875;55.806;38.082;2022-11-30T13:07:26;35.65;;;15.38;;
55989;SDS011;41875;55.806;38.082;2022-11-30T13:10:02;37.13;;;14.10;;
55989;SDS011;41875;55.806;38.082;2022-11-30T13:12:37;31.80;;;13.20;;
55989;SDS011;41875;55.806;38.082;2022-11-30T13:15:15;30.45;;;12.52;;
55989;SDS011;41875;55.806;38.082;2022-11-30T13:17:54;34.17;;;13.43;;
55989;SDS011;41875;55.806;38.082;2022-11-30T13:20:24;37.30;;;14.95;;
55989;SDS011;41875;55.806;38.082;2022-11-30T13:23:04;33.92;;;13.05;;
55989;SDS011;41875;55.806;38.082;2022-11-30T13:25:41;31.00;;;12.95;;
55989;SDS011;41875;55.806;38.082;2022-11-30T13:28:41;26.48;;;11.02;;
55989;SDS011;41875;55.806;38.082;2022-11-30T13:31:22;27.27;;;10.48;;
55989;SDS011;41875;55.806;38.082;2022-11-30T13:33:57;26.38;;;10.93;;
55989;SDS011;41875;55.806;38.082;2022-11-30T13:36:30;25.85;;;11.63;;
55989;SDS011;41875;55.806;38.082;2022-11-30T13:39:12;31.88;;;12.65;;
55989;SDS011;41875;55.806;38.082;2022-11-30T13:41:50;29.42;;;11.30;;
55989;SDS011;41875;55.806;38.082;2022-11-30T13:44:49;32.85;;;12.32;;
55989;SDS011;41875;55.806;38.082;2022-11-30T13:47:19;26.05;;;11.32;;
55989;SDS011;41875;55.806;38.082;2022-11-30T13:49:56;23.08;;;10.63;;
55989;SDS011;41875;55.806;38.082;2022-11-30T13:55:43;22.85;;;10.32;;
55989;SDS011;41875;55.806;38.082;2022-11-30T13:58:18;24.92;;;11.27;;
55989;SDS011;41875;55.806;38.082;2022-11-30T14:00:58;31.30;;;12.00;;
55989;SDS011;41875;55.806;38.082;2022-11-30T14:06:57;29.58;;;10.18;;
55989;SDS011;41875;55.806;38.082;2022-11-30T14:12:42;23.65;;;9.93;;
55989;SDS011;41875;55.806;38.082;2022-11-30T14:23:45;30.17;;;11.07;;
55989;SDS011;41875;55.806;38.082;2022-11-30T14:26:17;32.60;;;11.50;;
55989;SDS011;41875;55.806;38.082;2022-11-30T14:28:56;33.15;;;11.68;;
55989;SDS011;41875;55.806;38.082;2022-11-30T14:31:30;24.58;;;10.50;;
55989;SDS011;41875;55.806;38.082;2022-11-30T14:34:08;30.08;;;11.98;;
55989;SDS011;41875;55.806;38.082;2022-11-30T14:36:42;27.13;;;11.35;;
55989;SDS011;41875;55.806;38.082;2022-11-30T14:39:25;34.28;;;11.68;;
55989;SDS011;41875;55.806;38.082;2022-11-30T14:41:55;26.67;;;11.05;;
55989;SDS011;41875;55.806;38.082;2022-11-30T14:44:25;31.20;;;10.88;;
55989;SDS011;41875;55.806;38.082;2022-11-30T14:47:11;30.95;;;11.65;;
55989;SDS011;41875;55.806;38.082;2022-11-30T14:49:43;28.35;;;11.70;;
55989;SDS011;41875;55.806;38.082;2022-11-30T14:52:13;31.48;;;11.10;;
55989;SDS011;41875;55.806;38.082;2022-11-30T14:54:49;26.35;;;9.90;;
55989;SDS011;41875;55.806;38.082;2022-11-30T14:57:26;36.05;;;11.68;;
55989;SDS011;41875;55.806;38.082;2022-11-30T15:00:00;26.88;;;11.25;;
55989;SDS011;41875;55.806;38.082;2022-11-30T15:02:30;35.78;;;10.50;;
55989;SDS011;41875;55.806;38.082;2022-11-30T15:05:04;27.92;;;10.77;;
55989;SDS011;41875;55.806;38.082;2022-11-30T15:07:34;32.70;;;11.80;;
55989;SDS011;41875;55.806;38.082;2022-11-30T15:10:05;30.02;;;11.23;;
55989;SDS011;41875;55.806;38.082;2022-11-30T15:12:37;28.52;;;10.80;;
55989;SDS011;41875;55.806;38.082;2022-11-30T15:15:16;24.88;;;10.95;;